Olympos — 3EVZ5 — position and weather

sailwx.info

Track history (hours):
 
Tides and Currents Weather Stations Pressure Air Temp Water Temp Dewpoint Dewpoint Depression Visibility Wind Speed Wind Dir Waves Ship Positions

Olympos

Last reported at 2017-Oct-18 21:31 UTC. Time now 2017-Oct-23 02:39 UTC.
Position N 25°33' W 079°30'.

Length 224 m; draft 6.9 m.

Type: Cargo ship. MMSI: 355753000.

Date/timePositionNaut miles runAvg speedWind from/ knotsBaromVisibWave heightAir tempDewpointWater temp
2017-Oct-18 21:31N 25°33' W 079°30'012.1
2017-Oct-18 21:29N 25°34' W 079°30'712.1
2017-Oct-18 20:54N 25°41' W 079°29'512.1
2017-Oct-18 20:30N 25°45' W 079°29'612.3
2017-Oct-18 20:00N 25°52' W 079°28'612.1
2017-Oct-18 19:30N 25°58' W 079°27'811.9
2017-Oct-18 18:52N 26°05' W 079°27'411.9
2017-Oct-18 18:30N 26°10' W 079°26'612.1
2017-Oct-18 18:00N 26°16' W 079°26'  
Track history (hours):
 
Tides and Currents Weather Stations Pressure Air Temp Water Temp Dewpoint Dewpoint Depression Visibility Wind Speed Wind Dir Waves Ship Positions

Olympos

Last reported at 2017-Oct-18 21:31 UTC. Time now 2017-Oct-23 02:39 UTC.
Position N 25°33' W 079°30'.

Length 224 m; draft 6.9 m.

Type: Cargo ship. MMSI: 355753000.

Date/timePositionNaut miles runAvg speedWind from/ knotsBaromVisibWave heightAir tempDewpointWater temp
2017-Oct-18 21:31N 25°33' W 079°30'012.1
2017-Oct-18 21:29N 25°34' W 079°30'712.1
2017-Oct-18 20:54N 25°41' W 079°29'512.1
2017-Oct-18 20:30N 25°45' W 079°29'612.3
2017-Oct-18 20:00N 25°52' W 079°28'612.1
2017-Oct-18 19:30N 25°58' W 079°27'811.9
2017-Oct-18 18:52N 26°05' W 079°27'411.9
2017-Oct-18 18:30N 26°10' W 079°26'612.1
2017-Oct-18 18:00N 26°16' W 079°26'  

Dump ship's entire track history